Time;durP1;ratioP1;P1;durP2;ratioP2;P2;SDS_P1;SDS_P2;PMS_P1;PMS_P2;Temp;Humidity;BMP_temperature;BMP_pressure;BME280_temperature;BME280_humidity;BME280_pressure;Samples;Min_cycle;Max_cycle;Signal;HPM_P1;HPM_P2
2022/01/30 00:01:49;;;;;;;18.35;3.13;;;7.40;99.90;;;;;;4970493;28;20047;-62
2022/01/30 00:04:15;;;;;;;18.33;3.13;;;7.30;99.90;;;;;;4970203;28;20043;-61
2022/01/30 00:06:41;;;;;;;20.17;3.88;;;7.30;99.90;;;;;;4971164;28;20118;-61
2022/01/30 00:09:10;;;;;;;22.70;4.35;;;7.20;99.90;;;;;;4974348;28;20057;-62
2022/01/30 00:11:38;;;;;;;19.02;3.20;;;7.20;99.90;;;;;;4974286;28;20043;-62
2022/01/30 00:14:06;;;;;;;19.27;2.95;;;7.10;99.90;;;;;;4973890;28;20707;-61
2022/01/30 00:16:35;;;;;;;22.10;4.35;;;7.10;99.90;;;;;;4973586;28;20039;-62
2022/01/30 00:19:08;;;;;;;16.25;2.83;;;7.10;99.90;;;;;;4974303;28;20105;-62
2022/01/30 00:21:39;;;;;;;20.23;3.22;;;7.10;99.90;;;;;;4974186;28;20398;-61
2022/01/30 00:24:11;;;;;;;19.85;3.25;;;7.10;99.90;;;;;;4973777;28;20050;-62
2022/01/30 00:26:39;;;;;;;17.17;2.90;;;7.20;99.90;;;;;;4973897;28;20162;-62
2022/01/30 00:29:05;;;;;;;21.35;4.05;;;7.30;99.90;;;;;;4973610;28;20093;-61
2022/01/30 00:31:32;;;;;;;15.95;4.07;;;7.30;99.90;;;;;;4973850;28;20125;-62
2022/01/30 00:33:59;;;;;;;15.25;3.25;;;7.20;99.90;;;;;;4973777;28;20039;-62
2022/01/30 00:36:25;;;;;;;16.70;2.83;;;7.30;99.90;;;;;;4973652;28;20043;-62
2022/01/30 00:38:51;;;;;;;25.85;3.50;;;7.30;99.90;;;;;;4973767;28;20078;-62
2022/01/30 00:41:17;;;;;;;19.60;2.97;;;7.20;99.90;;;;;;4973820;28;20306;-61
2022/01/30 00:43:43;;;;;;;18.27;3.88;;;7.10;99.90;;;;;;4973153;28;20079;-61
2022/01/30 00:46:08;;;;;;;16.55;2.78;;;7.00;99.90;;;;;;4973362;28;20038;-61
2022/01/30 00:48:34;;;;;;;14.15;3.30;;;7.00;99.90;;;;;;4973358;28;20042;-62
2022/01/30 00:50:59;;;;;;;18.48;3.90;;;6.90;99.90;;;;;;4973504;28;20478;-61
2022/01/30 00:53:26;;;;;;;16.85;3.50;;;6.90;99.90;;;;;;4973234;28;20042;-61
2022/01/30 00:55:51;;;;;;;23.40;3.17;;;6.80;99.90;;;;;;4971823;28;20067;-62
2022/01/30 00:58:17;;;;;;;15.15;2.95;;;6.80;99.90;;;;;;4972950;28;20046;-61
2022/01/30 01:00:42;;;;;;;20.10;3.47;;;6.60;99.90;;;;;;4973547;28;20046;-61
2022/01/30 01:03:08;;;;;;;22.25;3.33;;;6.70;99.90;;;;;;4973255;28;20465;-62
2022/01/30 01:05:35;;;;;;;15.32;3.00;;;6.70;99.90;;;;;;4972988;28;20046;-62
2022/01/30 01:08:11;;;;;;;18.15;3.85;;;6.70;99.90;;;;;;4973042;28;20043;-61
2022/01/30 01:10:43;;;;;;;14.98;3.35;;;6.70;99.90;;;;;;4972966;28;20038;-61
2022/01/30 01:13:45;;;;;;;15.52;2.80;;;6.70;99.90;;;;;;4973196;28;20074;-61
2022/01/30 01:24:05;;;;;;;10.60;2.60;;;6.90;99.90;;;;;;4972790;28;20050;-61
2022/01/30 01:26:31;;;;;;;28.35;4.47;;;6.70;99.90;;;;;;4971618;28;20510;-62
2022/01/30 01:28:57;;;;;;;18.20;3.75;;;6.80;99.90;;;;;;4972611;28;20394;-61
2022/01/30 01:31:23;;;;;;;18.23;2.97;;;6.70;99.90;;;;;;4972659;28;20039;-61
2022/01/30 01:34:24;;;;;;;19.10;3.20;;;6.60;99.90;;;;;;4972168;28;20070;-62
2022/01/30 01:36:50;;;;;;;17.23;3.40;;;6.60;99.90;;;;;;4972777;28;20038;-61
2022/01/30 01:39:15;;;;;;;16.85;3.20;;;6.60;99.90;;;;;;4972520;28;20064;-61
2022/01/30 01:41:41;;;;;;;15.23;3.25;;;6.60;99.90;;;;;;4972487;28;20132;-61
2022/01/30 01:44:17;;;;;;;14.63;2.55;;;6.60;99.90;;;;;;4971873;28;20034;-61
2022/01/30 01:46:45;;;;;;;11.15;2.83;;;6.50;99.90;;;;;;4972520;28;20043;-61
2022/01/30 01:49:18;;;;;;;17.83;3.17;;;6.40;99.90;;;;;;4971145;28;20524;-62
2022/01/30 01:51:49;;;;;;;13.88;3.00;;;6.40;99.90;;;;;;4972407;28;20050;-61
2022/01/30 01:54:14;;;;;;;12.57;2.85;;;6.30;99.90;;;;;;4970642;28;20038;-61
2022/01/30 01:56:40;;;;;;;21.63;3.60;;;6.30;99.90;;;;;;4972061;28;20050;-61
2022/01/30 01:59:06;;;;;;;13.85;2.50;;;6.20;99.90;;;;;;4972263;28;20525;-62
2022/01/30 02:01:31;;;;;;;17.33;3.40;;;6.20;99.90;;;;;;4972147;28;20394;-61
2022/01/30 02:03:57;;;;;;;20.42;3.45;;;6.20;99.90;;;;;;4971970;28;20707;-61
2022/01/30 02:06:24;;;;;;;18.88;3.35;;;6.20;99.90;;;;;;4972156;28;20453;-62
2022/01/30 02:08:58;;;;;;;9.40;3.13;;;6.20;99.90;;;;;;4972002;28;20042;-62
2022/01/30 02:11:37;;;;;;;15.30;2.90;;;6.20;99.90;;;;;;4972108;28;20102;-61
2022/01/30 02:25:03;;;;;;;16.88;2.38;;;6.10;99.90;;;;;;4971560;28;20058;-62
2022/01/30 02:27:34;;;;;;;16.63;3.20;;;6.10;99.90;;;;;;4971655;28;20046;-61
2022/01/30 02:30:00;;;;;;;15.45;2.60;;;6.10;99.90;;;;;;4971096;28;20066;-61
2022/01/30 02:32:26;;;;;;;19.27;3.17;;;6.10;99.90;;;;;;4971578;28;20126;-62
2022/01/30 02:34:52;;;;;;;17.38;3.20;;;6.10;99.90;;;;;;4971561;28;20169;-61
2022/01/30 02:37:18;;;;;;;18.00;3.60;;;6.10;99.90;;;;;;4971590;28;20130;-61
2022/01/30 02:39:44;;;;;;;17.88;2.95;;;6.10;99.90;;;;;;4971530;28;20441;-61
2022/01/30 02:42:16;;;;;;;20.55;4.72;;;6.10;99.90;;;;;;4971427;28;20042;-61
2022/01/30 02:44:55;;;;;;;18.23;3.67;;;6.30;99.90;;;;;;4969912;28;20047;-62
2022/01/30 02:47:25;;;;;;;19.50;3.53;;;6.40;99.90;;;;;;4970079;28;20054;-61
2022/01/30 02:50:09;;;;;;;20.63;3.20;;;6.50;99.90;;;;;;4971690;28;20050;-61
2022/01/30 02:52:36;;;;;;;22.90;4.50;;;6.50;99.90;;;;;;4971242;28;20042;-61
2022/01/30 02:55:03;;;;;;;16.67;2.53;;;6.50;99.90;;;;;;4970997;28;20035;-62
2022/01/30 02:57:29;;;;;;;26.73;3.15;;;6.60;99.90;;;;;;4971257;28;20689;-61
2022/01/30 02:59:55;;;;;;;16.90;3.55;;;6.60;99.90;;;;;;4971388;28;20043;-61
2022/01/30 03:02:20;;;;;;;24.20;3.10;;;6.60;99.90;;;;;;4971377;28;20733;-61
2022/01/30 03:04:47;;;;;;;21.17;5.30;;;6.60;99.90;;;;;;4971185;28;20066;-62
2022/01/30 03:07:12;;;;;;;17.33;3.05;;;6.70;99.90;;;;;;4971011;28;20057;-62
2022/01/30 03:09:38;;;;;;;28.17;4.22;;;6.70;99.90;;;;;;4971061;28;20412;-62
2022/01/30 03:12:04;;;;;;;19.17;3.20;;;6.80;99.90;;;;;;4971531;28;20054;-61
2022/01/30 03:14:30;;;;;;;24.50;4.47;;;6.80;99.90;;;;;;4970817;28;20405;-62
2022/01/30 03:16:56;;;;;;;21.73;3.33;;;6.80;99.90;;;;;;4969750;28;20046;-61
2022/01/30 03:19:21;;;;;;;21.30;3.50;;;6.80;99.90;;;;;;4971147;28;20039;-61
2022/01/30 03:21:47;;;;;;;21.67;4.35;;;6.80;99.90;;;;;;4971576;28;20047;-61
2022/01/30 03:24:13;;;;;;;23.35;3.53;;;6.90;99.90;;;;;;4970806;28;20039;-61
2022/01/30 03:26:40;;;;;;;18.10;3.15;;;6.90;99.90;;;;;;4971137;28;20051;-62
2022/01/30 03:29:07;;;;;;;16.52;4.00;;;6.80;99.90;;;;;;4970983;28;20510;-62
2022/01/30 03:31:34;;;;;;;15.43;3.00;;;6.70;99.90;;;;;;4971128;28;20035;-61
2022/01/30 03:34:00;;;;;;;15.55;2.42;;;6.40;99.90;;;;;;4970894;28;20035;-61
2022/01/30 03:36:25;;;;;;;14.13;3.10;;;6.30;99.90;;;;;;4971015;28;20100;-62
2022/01/30 03:38:51;;;;;;;17.15;2.67;;;6.30;99.90;;;;;;4970785;28;20682;-62
2022/01/30 03:41:16;;;;;;;15.07;3.03;;;6.30;99.90;;;;;;4971042;28;20043;-62
2022/01/30 03:43:42;;;;;;;14.98;3.05;;;6.30;99.90;;;;;;4974701;28;20039;-61
2022/01/30 03:46:07;;;;;;;23.88;3.55;;;6.30;99.90;;;;;;4974828;28;20046;-62
2022/01/30 03:48:33;;;;;;;21.80;3.85;;;6.20;99.90;;;;;;4974398;28;20034;-62
2022/01/30 03:50:58;;;;;;;18.85;4.22;;;6.10;99.90;;;;;;4976213;28;20071;-62
2022/01/30 03:53:24;;;;;;;23.13;3.40;;;6.10;99.90;;;;;;4974799;28;20030;-62
2022/01/30 03:55:49;;;;;;;28.10;3.70;;;6.10;99.90;;;;;;4974126;28;20089;-62
2022/01/30 03:58:15;;;;;;;22.60;3.70;;;6.00;99.90;;;;;;4974389;28;20039;-62
2022/01/30 04:00:41;;;;;;;23.67;4.18;;;6.10;99.90;;;;;;4974264;28;20121;-62
2022/01/30 04:03:07;;;;;;;17.55;3.45;;;6.00;99.90;;;;;;4973903;28;20046;-61
2022/01/30 04:05:32;;;;;;;20.52;5.05;;;6.00;99.90;;;;;;4974130;28;20061;-63
2022/01/30 04:08:02;;;;;;;19.45;3.95;;;6.00;99.90;;;;;;4973890;28;20414;-62
2022/01/30 04:10:28;;;;;;;28.17;3.63;;;6.00;99.90;;;;;;4974138;28;20709;-62
2022/01/30 04:12:54;;;;;;;21.25;3.80;;;6.10;99.90;;;;;;4973957;28;20072;-62
2022/01/30 04:15:20;;;;;;;20.27;3.95;;;6.10;99.90;;;;;;4974053;28;20497;-62
2022/01/30 04:17:46;;;;;;;24.05;4.05;;;6.10;99.90;;;;;;4973757;28;20050;-62
2022/01/30 04:20:12;;;;;;;23.50;3.38;;;6.10;99.90;;;;;;4973750;28;20118;-62
2022/01/30 04:22:37;;;;;;;28.08;5.18;;;6.10;99.90;;;;;;4973707;28;20122;-62
2022/01/30 04:25:03;;;;;;;32.70;4.38;;;6.10;99.90;;;;;;4972599;28;20121;-63
2022/01/30 04:27:29;;;;;;;24.90;3.72;;;6.10;99.90;;;;;;4973844;28;20041;-63
2022/01/30 04:29:55;;;;;;;31.80;4.60;;;6.10;99.90;;;;;;4973566;28;20119;-62
2022/01/30 04:32:21;;;;;;;35.40;6.03;;;6.20;99.90;;;;;;4973598;28;20045;-62
2022/01/30 04:34:54;;;;;;;35.30;5.53;;;6.20;99.90;;;;;;4973238;28;20044;-62
2022/01/30 04:37:28;;;;;;;36.88;6.00;;;6.20;99.90;;;;;;4972383;28;20448;-63
2022/01/30 05:01:39;;;;;;;20.40;4.03;;;6.20;99.90;;;;;;4973091;28;20448;-61
2022/01/30 05:04:39;;;;;;;20.10;4.07;;;6.30;99.90;;;;;;4972724;28;20058;-62
2022/01/30 05:09:32;;;;;;;24.98;4.07;;;5.90;99.90;;;;;;4973105;28;20042;-62
2022/01/30 05:11:57;;;;;;;24.73;3.75;;;5.70;99.90;;;;;;4972983;28;20081;-62
2022/01/30 05:14:26;;;;;;;17.05;4.13;;;5.60;99.90;;;;;;4972346;28;20117;-62
2022/01/30 05:16:52;;;;;;;20.67;4.55;;;5.50;99.90;;;;;;4973121;28;20113;-62
2022/01/30 05:19:18;;;;;;;17.65;4.10;;;5.50;99.90;;;;;;4973089;28;20121;-62
2022/01/30 05:21:44;;;;;;;33.47;5.03;;;5.60;99.90;;;;;;4972618;28;20079;-63
2022/01/30 05:24:10;;;;;;;27.15;4.32;;;5.60;99.90;;;;;;4972496;28;20066;-62
2022/01/30 05:26:41;;;;;;;22.73;3.88;;;5.60;99.90;;;;;;4972668;28;20054;-62
2022/01/30 05:29:06;;;;;;;21.40;3.55;;;5.60;99.90;;;;;;4971197;28;20170;-63
2022/01/30 05:31:32;;;;;;;35.75;5.88;;;5.50;99.90;;;;;;4972762;28;20118;-62
2022/01/30 05:33:58;;;;;;;30.13;5.18;;;5.40;99.90;;;;;;4972177;28;20049;-62
2022/01/30 05:36:24;;;;;;;28.88;5.45;;;5.60;99.90;;;;;;4972365;28;20045;-63
2022/01/30 05:38:50;;;;;;;34.30;5.25;;;5.50;99.90;;;;;;4972532;28;20042;-62
2022/01/30 05:41:16;;;;;;;33.28;4.90;;;5.40;99.90;;;;;;4972433;28;20490;-62
2022/01/30 05:43:43;;;;;;;26.27;4.97;;;5.40;99.90;;;;;;4971856;28;20409;-62
2022/01/30 05:46:16;;;;;;;29.52;5.45;;;5.50;99.90;;;;;;4972383;28;20537;-61
2022/01/30 05:48:42;;;;;;;36.35;7.07;;;5.50;99.90;;;;;;4972394;28;20130;-62
2022/01/30 05:51:08;;;;;;;27.50;4.25;;;5.50;99.90;;;;;;4972387;28;20043;-62
2022/01/30 05:53:34;;;;;;;28.77;5.07;;;5.60;99.90;;;;;;4971921;28;20041;-62
2022/01/30 05:55:59;;;;;;;20.25;3.80;;;5.70;99.90;;;;;;4971762;28;20034;-62
2022/01/30 05:58:25;;;;;;;34.28;5.35;;;5.70;99.90;;;;;;4971933;28;20041;-62
2022/01/30 06:00:51;;;;;;;29.83;4.75;;;5.80;99.90;;;;;;4972322;28;20038;-63
2022/01/30 06:03:16;;;;;;;24.75;4.88;;;5.90;99.90;;;;;;4971827;28;20086;-62
2022/01/30 06:05:45;;;;;;;29.38;4.63;;;5.90;99.90;;;;;;4971019;28;20097;-62
2022/01/30 06:08:15;;;;;;;21.13;3.95;;;5.80;99.90;;;;;;4971860;28;20668;-63
2022/01/30 06:10:41;;;;;;;34.05;4.57;;;5.80;99.90;;;;;;4970545;28;20043;-62
2022/01/30 06:13:06;;;;;;;31.92;5.15;;;5.70;99.90;;;;;;4971775;28;20106;-62
2022/01/30 06:15:32;;;;;;;34.05;5.88;;;5.70;99.90;;;;;;4971850;28;20070;-62
2022/01/30 06:17:58;;;;;;;29.30;4.07;;;5.60;99.90;;;;;;4971675;28;20057;-62
2022/01/30 06:20:23;;;;;;;37.00;5.97;;;5.60;99.90;;;;;;4971713;28;20119;-62
2022/01/30 06:22:49;;;;;;;28.05;5.63;;;5.60;99.90;;;;;;4970492;28;20042;-62
2022/01/30 06:25:14;;;;;;;25.15;4.70;;;5.50;99.90;;;;;;4971329;28;20573;-62
2022/01/30 06:27:40;;;;;;;40.97;6.05;;;5.50;99.90;;;;;;4971339;28;20101;-62
2022/01/30 06:30:08;;;;;;;34.78;5.93;;;5.40;99.90;;;;;;4971656;28;20049;-62
2022/01/30 06:32:33;;;;;;;20.73;3.97;;;5.40;99.90;;;;;;4971548;28;20039;-62
2022/01/30 06:35:00;;;;;;;31.92;5.70;;;5.40;99.90;;;;;;4971385;28;20031;-62
2022/01/30 06:37:25;;;;;;;26.58;4.40;;;5.40;99.90;;;;;;4971414;28;20513;-62
2022/01/30 06:39:51;;;;;;;33.38;5.18;;;5.40;99.90;;;;;;4971267;28;20133;-62
2022/01/30 06:42:17;;;;;;;35.83;5.25;;;5.40;99.90;;;;;;4971637;28;20042;-62
2022/01/30 06:44:45;;;;;;;29.27;4.75;;;5.40;99.90;;;;;;4971331;28;20051;-62
2022/01/30 06:47:12;;;;;;;33.67;5.32;;;5.30;99.90;;;;;;4971132;28;20053;-62
2022/01/30 06:49:38;;;;;;;38.22;5.70;;;5.50;99.90;;;;;;4971281;28;20065;-62
2022/01/30 06:52:06;;;;;;;25.02;5.35;;;5.50;99.90;;;;;;4971312;28;20497;-62
2022/01/30 06:54:32;;;;;;;35.38;6.00;;;5.60;99.90;;;;;;4970777;28;20382;-62
2022/01/30 06:56:57;;;;;;;31.33;5.22;;;5.70;99.90;;;;;;4971346;28;20046;-62
2022/01/30 06:59:23;;;;;;;38.53;6.57;;;5.80;99.90;;;;;;4970086;28;20050;-62
2022/01/30 07:01:52;;;;;;;25.30;4.13;;;5.80;99.90;;;;;;4971217;28;20054;-62
2022/01/30 07:04:18;;;;;;;27.05;4.68;;;5.80;99.90;;;;;;4971061;28;20093;-62
2022/01/30 07:06:43;;;;;;;27.15;4.95;;;5.80;99.90;;;;;;4971139;28;20039;-63
2022/01/30 07:09:09;;;;;;;39.05;5.55;;;5.80;99.90;;;;;;4970778;28;20130;-62
2022/01/30 07:11:34;;;;;;;28.85;5.25;;;5.90;99.90;;;;;;4971184;28;20049;-62
2022/01/30 07:14:00;;;;;;;31.77;4.57;;;5.90;99.90;;;;;;4970880;28;20034;-62
2022/01/30 07:16:25;;;;;;;25.73;4.40;;;6.10;99.90;;;;;;4971813;28;20042;-62
2022/01/30 07:18:51;;;;;;;28.85;5.78;;;6.10;99.90;;;;;;4974950;28;20046;-62
2022/01/30 07:21:17;;;;;;;37.28;5.95;;;6.10;99.90;;;;;;4974883;28;20102;-62
2022/01/30 07:23:42;;;;;;;26.10;4.45;;;6.00;99.90;;;;;;4974544;28;20085;-62
2022/01/30 07:26:09;;;;;;;24.35;4.03;;;6.00;99.90;;;;;;4974894;28;20046;-62
2022/01/30 07:28:34;;;;;;;29.42;4.65;;;6.00;99.90;;;;;;4974673;28;20512;-62
2022/01/30 07:31:00;;;;;;;33.15;5.63;;;6.00;99.90;;;;;;4975050;28;20043;-62
2022/01/30 07:33:25;;;;;;;27.30;4.47;;;5.90;99.90;;;;;;4974558;28;20135;-63
2022/01/30 07:35:53;;;;;;;33.42;5.13;;;5.90;99.90;;;;;;4974607;28;20496;-63
2022/01/30 07:38:21;;;;;;;37.85;5.35;;;6.00;99.90;;;;;;4974451;28;20051;-63
2022/01/30 07:40:47;;;;;;;32.40;4.35;;;6.10;99.90;;;;;;4974809;28;20046;-64
2022/01/30 07:43:12;;;;;;;31.88;5.25;;;6.10;99.90;;;;;;4974556;28;20050;-63
2022/01/30 07:45:38;;;;;;;27.40;4.40;;;6.10;99.90;;;;;;4974436;28;20073;-63
2022/01/30 07:48:04;;;;;;;32.90;5.43;;;6.10;99.90;;;;;;4974414;28;20047;-63
2022/01/30 07:50:29;;;;;;;30.75;5.75;;;6.00;99.90;;;;;;4974357;28;20047;-63
2022/01/30 07:52:55;;;;;;;29.90;5.65;;;6.10;99.90;;;;;;4974196;28;20046;-63
2022/01/30 07:55:21;;;;;;;33.72;5.20;;;6.20;99.90;;;;;;4974193;28;20117;-63
2022/01/30 07:57:46;;;;;;;34.50;5.63;;;6.20;99.90;;;;;;4974296;28;20042;-63
2022/01/30 08:00:13;;;;;;;37.60;5.68;;;6.20;99.90;;;;;;4974354;28;20121;-64
2022/01/30 08:02:39;;;;;;;34.60;6.25;;;6.30;99.90;;;;;;4973988;28;20104;-63
2022/01/30 08:05:05;;;;;;;28.73;4.35;;;6.30;99.90;;;;;;4974029;28;20469;-63
2022/01/30 08:07:31;;;;;;;28.83;5.88;;;6.40;99.90;;;;;;4973768;28;20548;-63
2022/01/30 08:09:57;;;;;;;39.88;6.10;;;6.40;99.90;;;;;;4974162;28;20078;-63
2022/01/30 08:12:23;;;;;;;38.10;5.30;;;6.50;99.90;;;;;;4974119;28;20065;-64
2022/01/30 08:14:49;;;;;;;26.35;4.50;;;6.50;99.90;;;;;;4973919;28;20421;-63
2022/01/30 08:17:21;;;;;;;43.92;7.43;;;6.50;99.90;;;;;;4973941;28;20105;-64
2022/01/30 08:19:47;;;;;;;28.83;5.80;;;6.60;99.90;;;;;;4973718;28;20078;-63
2022/01/30 08:22:13;;;;;;;37.88;5.07;;;6.50;99.90;;;;;;4973741;28;20717;-63
2022/01/30 08:24:39;;;;;;;22.65;4.10;;;6.60;99.90;;;;;;4973494;28;20571;-64
2022/01/30 08:27:05;;;;;;;32.40;5.68;;;6.50;99.90;;;;;;4973211;28;20133;-63
2022/01/30 08:29:31;;;;;;;35.03;5.32;;;6.60;99.90;;;;;;4973560;28;20035;-63
2022/01/30 08:31:58;;;;;;;40.97;6.60;;;6.60;99.90;;;;;;4973752;28;20050;-63
2022/01/30 08:34:24;;;;;;;24.60;4.68;;;6.60;99.90;;;;;;4973337;28;20465;-63
2022/01/30 08:36:49;;;;;;;32.95;5.72;;;6.60;99.90;;;;;;4973700;28;20093;-63
2022/01/30 08:39:15;;;;;;;36.50;6.53;;;6.60;99.90;;;;;;4973582;28;20074;-64
2022/01/30 08:41:41;;;;;;;38.78;6.32;;;6.50;99.90;;;;;;4973607;28;20047;-63
2022/01/30 08:44:06;;;;;;;38.10;5.13;;;6.40;99.90;;;;;;4973427;28;20046;-63
2022/01/30 08:46:32;;;;;;;41.80;5.70;;;6.40;99.90;;;;;;4973436;28;20038;-63
2022/01/30 08:48:57;;;;;;;28.25;5.38;;;6.30;99.90;;;;;;4973086;28;20599;-62
2022/01/30 08:51:23;;;;;;;25.58;5.20;;;6.30;99.90;;;;;;4973224;28;20049;-63
2022/01/30 08:53:48;;;;;;;24.73;4.65;;;6.40;99.90;;;;;;4973100;28;20054;-63
2022/01/30 08:56:14;;;;;;;27.05;4.38;;;6.60;99.90;;;;;;4973113;28;20066;-63
2022/01/30 08:58:40;;;;;;;40.90;5.80;;;6.70;99.90;;;;;;4973220;28;20409;-63
2022/01/30 09:01:05;;;;;;;36.28;5.45;;;6.80;99.90;;;;;;4973180;28;20039;-63
2022/01/30 09:03:31;;;;;;;36.10;6.03;;;6.80;99.90;;;;;;4972762;28;20098;-63
2022/01/30 09:05:56;;;;;;;17.95;4.07;;;6.70;99.90;;;;;;4973074;28;20416;-63
2022/01/30 09:08:22;;;;;;;24.60;4.60;;;6.70;97.00;;;;;;4973022;28;20098;-62
2022/01/30 09:10:49;;;;;;;23.55;5.32;;;6.70;98.20;;;;;;4973058;28;20556;-63
2022/01/30 09:13:15;;;;;;;35.85;5.38;;;6.70;99.00;;;;;;4972757;28;20035;-62
2022/01/30 09:15:42;;;;;;;28.00;4.85;;;6.70;98.30;;;;;;4972762;28;20413;-63
2022/01/30 09:18:10;;;;;;;22.63;4.22;;;6.70;99.30;;;;;;4975430;28;20065;-63
2022/01/30 09:20:37;;;;;;;30.75;5.10;;;6.70;98.00;;;;;;4989964;28;20469;-63
2022/01/30 09:23:03;;;;;;;25.35;5.35;;;6.60;97.90;;;;;;4971285;28;20528;-63
2022/01/30 09:25:28;;;;;;;31.40;4.47;;;6.60;99.40;;;;;;4972648;28;20057;-63
2022/01/30 09:27:54;;;;;;;34.65;5.40;;;6.70;99.00;;;;;;4972457;28;20043;-62
2022/01/30 09:30:19;;;;;;;28.85;4.82;;;6.80;99.10;;;;;;4972566;28;20039;-62
2022/01/30 09:32:45;;;;;;;26.88;5.18;;;6.90;97.20;;;;;;4972438;28;20035;-63
2022/01/30 09:35:11;;;;;;;29.98;6.30;;;7.00;98.10;;;;;;4972686;28;20577;-62
2022/01/30 09:37:37;;;;;;;30.98;5.88;;;7.00;97.60;;;;;;4972140;28;20054;-63
2022/01/30 09:40:04;;;;;;;35.65;5.35;;;7.00;98.30;;;;;;4971458;28;20085;-63
2022/01/30 09:42:30;;;;;;;30.42;5.10;;;7.00;98.80;;;;;;4971856;28;20050;-63
2022/01/30 09:45:00;;;;;;;38.45;5.43;;;7.00;97.60;;;;;;4972379;28;20042;-63
2022/01/30 09:47:27;;;;;;;29.15;5.10;;;6.90;98.80;;;;;;4971033;28;20647;-63
2022/01/30 09:49:54;;;;;;;39.80;5.45;;;6.90;98.40;;;;;;4971193;28;20042;-63
2022/01/30 09:52:20;;;;;;;38.53;5.60;;;6.80;99.10;;;;;;4974345;28;20035;-63
2022/01/30 09:54:48;;;;;;;32.15;6.32;;;6.80;98.50;;;;;;4979772;28;20058;-63
2022/01/30 09:57:14;;;;;;;31.67;5.57;;;6.80;99.20;;;;;;4978332;28;20038;-62
2022/01/30 09:59:39;;;;;;;21.20;3.92;;;6.90;97.60;;;;;;4970838;28;20053;-62
2022/01/30 10:02:06;;;;;;;23.17;5.05;;;7.00;97.90;;;;;;4971748;28;20458;-63
2022/01/30 10:04:32;;;;;;;27.33;5.18;;;7.00;97.70;;;;;;4971174;28;20540;-63
2022/01/30 10:07:04;;;;;;;25.35;4.70;;;7.00;97.80;;;;;;4971959;28;20489;-63
2022/01/30 10:09:33;;;;;;;;;;;7.00;96.50;;;;;;4972357;28;20469;-63
2022/01/30 10:15:01;;;;;;;34.03;5.43;;;7.10;98.60;;;;;;4971583;28;20704;-63
2022/01/30 10:17:36;;;;;;;34.85;5.00;;;7.20;97.40;;;;;;4971920;28;20042;-63
2022/01/30 10:20:04;;;;;;;31.33;4.93;;;7.30;98.10;;;;;;4971720;28;20072;-63
2022/01/30 10:22:30;;;;;;;27.83;5.28;;;7.40;97.90;;;;;;4971400;28;20039;-63
2022/01/30 10:24:57;;;;;;;27.63;5.18;;;7.50;96.90;;;;;;4971504;28;20042;-63
2022/01/30 10:27:27;;;;;;;31.85;5.45;;;7.40;97.10;;;;;;4971824;28;20137;-63
2022/01/30 10:29:58;;;;;;;28.35;4.38;;;7.30;96.40;;;;;;4971665;28;20034;-63
2022/01/30 10:32:26;;;;;;;36.88;5.55;;;7.30;96.50;;;;;;4971451;28;20045;-64
2022/01/30 10:35:07;;;;;;;34.78;5.10;;;7.30;96.60;;;;;;4971485;28;20074;-63
2022/01/30 10:37:36;;;;;;;;;;;7.30;95.70;;;;;;4972049;28;20492;-63
2022/01/30 10:40:04;;;;;;;25.08;4.95;;;7.30;97.00;;;;;;4971515;28;19917;-63
2022/01/30 10:42:39;;;;;;;27.25;4.82;;;7.40;97.70;;;;;;4970901;28;20560;-63
2022/01/30 10:45:35;;;;;;;29.20;4.05;;;7.40;95.70;;;;;;4969931;28;20130;-63
2022/01/30 10:48:10;;;;;;;31.30;5.78;;;7.40;97.10;;;;;;4976278;28;20058;-63
2022/01/30 10:50:39;;;;;;;33.00;5.13;;;7.50;96.60;;;;;;4970851;28;20078;-63
2022/01/30 10:53:04;;;;;;;31.55;5.18;;;7.60;97.80;;;;;;4970854;28;20118;-63
2022/01/30 10:55:36;;;;;;;26.95;5.18;;;7.60;98.10;;;;;;4970703;28;20178;-62
2022/01/30 10:58:03;;;;;;;36.70;5.00;;;7.60;96.70;;;;;;4970756;28;20058;-62
2022/01/30 11:00:36;;;;;;;21.80;4.78;;;7.50;98.10;;;;;;4970708;28;20631;-62
2022/01/30 11:03:02;;;;;;;42.13;6.20;;;7.40;97.60;;;;;;4970864;28;20042;-62
2022/01/30 11:05:28;;;;;;;38.10;6.05;;;7.30;98.60;;;;;;4970838;28;20705;-62
2022/01/30 11:07:53;;;;;;;29.40;5.38;;;7.30;99.30;;;;;;4970785;28;20401;-62
2022/01/30 11:10:24;;;;;;;26.35;5.22;;;7.20;99.40;;;;;;4971221;28;20493;-62
2022/01/30 11:13:07;;;;;;;45.03;7.22;;;7.20;99.60;;;;;;4969408;28;20039;-63
2022/01/30 11:15:38;;;;;;;30.10;4.93;;;7.30;99.90;;;;;;4970873;28;20058;-62
2022/01/30 11:18:05;;;;;;;34.95;6.47;;;7.40;99.90;;;;;;4971030;28;20043;-63
2022/01/30 11:20:32;;;;;;;40.47;6.10;;;7.50;99.80;;;;;;4969802;28;20098;-63
2022/01/30 11:23:03;;;;;;;32.75;5.75;;;7.60;99.20;;;;;;4970716;28;20070;-63
2022/01/30 11:25:35;;;;;;;36.73;5.17;;;7.80;98.70;;;;;;4970679;28;20097;-62
2022/01/30 11:28:04;;;;;;;40.40;6.00;;;7.90;98.40;;;;;;4970959;28;20035;-62
2022/01/30 11:30:32;;;;;;;29.90;5.13;;;7.90;98.90;;;;;;4971050;28;20034;-62
2022/01/30 11:32:58;;;;;;;28.20;5.22;;;7.90;96.80;;;;;;4970690;28;20050;-62
2022/01/30 11:35:24;;;;;;;26.67;4.93;;;7.80;96.60;;;;;;4970880;28;20049;-62
2022/01/30 11:37:50;;;;;;;23.52;4.55;;;7.70;95.50;;;;;;4968917;28;20058;-61
2022/01/30 11:40:19;;;;;;;37.85;4.90;;;7.70;94.90;;;;;;4968496;28;20134;-62
2022/01/30 11:42:49;;;;;;;32.00;4.80;;;7.70;95.30;;;;;;4968128;28;20873;-63
2022/01/30 11:45:27;;;;;;;26.42;4.82;;;7.60;96.50;;;;;;4968222;28;20102;-62
2022/01/30 11:47:55;;;;;;;28.65;6.85;;;7.50;96.90;;;;;;4967244;28;20093;-63
2022/01/30 11:50:29;;;;;;;37.97;5.65;;;7.50;96.80;;;;;;4967751;28;20047;-62
2022/01/30 11:53:04;;;;;;;30.58;4.57;;;7.50;96.80;;;;;;4968034;28;20039;-62
2022/01/30 11:55:56;;;;;;;25.90;4.45;;;7.60;96.50;;;;;;4968029;28;20138;-62
2022/01/30 11:58:36;;;;;;;25.55;4.57;;;7.70;96.00;;;;;;4967991;28;20046;-61
2022/01/30 12:01:13;;;;;;;36.28;5.70;;;7.70;95.50;;;;;;4968186;28;20046;-62
2022/01/30 12:03:56;;;;;;;27.83;5.13;;;7.70;96.10;;;;;;4970224;28;20039;-62
2022/01/30 12:06:25;;;;;;;25.25;4.82;;;7.70;95.30;;;;;;4971534;28;20046;-62
2022/01/30 12:08:55;;;;;;;32.53;5.15;;;7.80;95.30;;;;;;4971612;28;20043;-61
2022/01/30 12:11:36;;;;;;;39.10;5.63;;;7.90;96.10;;;;;;4971403;28;20697;-61
2022/01/30 12:14:06;;;;;;;28.92;4.80;;;7.90;95.90;;;;;;4971273;28;20043;-61
2022/01/30 12:16:51;;;;;;;16.08;3.88;;;7.90;94.90;;;;;;4971215;28;20068;-62
2022/01/30 12:19:39;;;;;;;28.55;4.70;;;7.80;93.90;;;;;;4970847;28;20043;-62
2022/01/30 12:22:17;;;;;;;24.50;4.20;;;7.70;92.30;;;;;;4969165;28;20081;-62
2022/01/30 12:24:48;;;;;;;37.33;4.50;;;7.70;94.00;;;;;;4968500;28;20043;-61
2022/01/30 12:27:14;;;;;;;26.40;4.63;;;7.80;95.20;;;;;;4951795;29;20039;-60
2022/01/30 12:29:50;;;;;;;26.13;4.63;;;7.80;96.60;;;;;;4969252;28;20066;-62
2022/01/30 12:32:28;;;;;;;28.00;4.95;;;7.70;94.30;;;;;;4971403;28;20073;-61
2022/01/30 12:34:56;;;;;;;29.67;5.15;;;7.70;96.10;;;;;;4971283;28;20118;-62
2022/01/30 12:37:28;;;;;;;27.52;4.38;;;7.80;95.20;;;;;;4971351;28;20042;-61
2022/01/30 12:39:54;;;;;;;;;;;7.80;94.50;;;;;;4971330;28;20409;-61
2022/01/30 12:42:21;;;;;;;20.08;3.88;;;7.80;92.30;;;;;;4970785;28;19921;-63
2022/01/30 12:44:48;;;;;;;23.20;4.25;;;7.70;92.30;;;;;;4970845;28;20050;-61
2022/01/30 12:47:15;;;;;;;34.35;4.65;;;7.70;90.70;;;;;;4970975;28;20038;-61
2022/01/30 12:49:50;;;;;;;27.88;4.60;;;7.70;91.60;;;;;;4953434;28;20134;-61
2022/01/30 12:52:36;;;;;;;21.25;4.35;;;7.60;93.40;;;;;;4970654;28;20049;-62
2022/01/30 12:55:09;;;;;;;26.90;4.53;;;7.60;93.80;;;;;;4970356;28;20070;-62
2022/01/30 12:57:35;;;;;;;28.98;5.20;;;7.70;94.40;;;;;;4970644;28;20046;-62
2022/01/30 13:00:04;;;;;;;25.83;4.22;;;7.90;94.10;;;;;;4969825;28;20078;-62
2022/01/30 13:02:30;;;;;;;25.55;4.95;;;7.90;94.50;;;;;;4969585;28;20043;-61
2022/01/30 13:04:59;;;;;;;31.98;5.82;;;7.90;93.90;;;;;;4969768;28;20042;-62
2022/01/30 13:07:25;;;;;;;14.93;3.28;;;7.90;91.10;;;;;;4967507;28;20034;-61
2022/01/30 13:10:12;;;;;;;21.08;3.80;;;7.70;91.10;;;;;;4970025;28;20043;-62
2022/01/30 13:12:39;;;;;;;32.78;4.38;;;7.70;91.70;;;;;;4968196;28;20043;-62
2022/01/30 13:15:12;;;;;;;25.42;5.15;;;7.70;91.50;;;;;;4969730;28;20035;-61
2022/01/30 13:17:38;;;;;;;30.92;4.40;;;7.80;92.30;;;;;;4969739;28;20046;-61
2022/01/30 13:20:06;;;;;;;25.90;4.80;;;7.90;89.80;;;;;;4969892;28;20053;-61
2022/01/30 13:22:38;;;;;;;24.42;4.50;;;7.90;87.30;;;;;;4969498;28;20085;-62
2022/01/30 13:25:13;;;;;;;30.70;5.22;;;7.90;90.50;;;;;;4967343;28;20129;-62
2022/01/30 13:27:44;;;;;;;21.70;4.15;;;7.90;90.50;;;;;;4969669;28;20421;-62
2022/01/30 13:30:18;;;;;;;23.77;5.05;;;7.90;91.20;;;;;;4968512;28;20061;-62
2022/01/30 13:32:44;;;;;;;30.50;4.85;;;7.80;90.70;;;;;;4982111;28;20042;-63
2022/01/30 13:35:14;;;;;;;21.27;3.83;;;7.80;92.90;;;;;;4968274;28;20042;-62
2022/01/30 13:37:41;;;;;;;28.38;4.35;;;7.80;93.40;;;;;;4967133;28;20054;-62
2022/01/30 13:40:19;;;;;;;27.90;3.85;;;7.90;89.60;;;;;;4968431;28;20043;-62